createdAt,value
2018-04-14T12:44:49.390Z,9.50
2018-04-14T12:47:22.717Z,9.40
2018-04-14T12:49:56.820Z,9.40
2018-04-14T12:52:30.711Z,9.30
2018-04-14T12:55:04.332Z,9.30
2018-04-14T12:57:38.194Z,9.40
2018-04-14T13:00:07.412Z,9.30
2018-04-14T13:02:41.690Z,9.40
2018-04-14T13:05:10.863Z,9.30
2018-04-14T13:07:45.159Z,9.40
2018-04-14T13:10:14.563Z,9.40
2018-04-14T13:12:47.259Z,9.30
2018-04-14T13:15:16.077Z,9.40
2018-04-14T13:17:51.333Z,9.40
2018-04-14T13:20:21.220Z,9.40
2018-04-14T13:22:50.459Z,9.30
2018-04-14T13:25:25.205Z,9.40
2018-04-14T13:27:59.477Z,9.40
2018-04-14T13:30:34.091Z,9.50
2018-04-14T13:33:14.051Z,9.60
2018-04-14T13:35:47.677Z,9.60
2018-04-14T13:38:21.291Z,9.50
2018-04-14T13:40:50.447Z,9.50
2018-04-14T13:43:24.371Z,9.50
2018-04-14T13:45:58.876Z,9.50
2018-04-14T13:48:33.275Z,9.50
2018-04-14T13:51:02.661Z,9.40
2018-04-14T13:53:36.326Z,9.50
2018-04-14T13:56:05.714Z,9.50
2018-04-14T13:58:39.868Z,9.50
2018-04-14T14:01:09.164Z,9.50
2018-04-14T14:03:44.994Z,9.50
2018-04-14T14:06:19.473Z,9.50
2018-04-14T14:08:55.552Z,9.60
2018-04-14T14:11:28.840Z,9.60
2018-04-14T14:14:02.849Z,9.60
2018-04-14T14:16:37.532Z,9.70
2018-04-14T14:19:12.901Z,9.70
2018-04-14T14:21:47.214Z,9.80
2018-04-14T14:24:16.687Z,9.80
2018-04-14T14:26:52.859Z,9.80
2018-04-14T14:29:26.595Z,9.70
2018-04-14T14:32:01.227Z,9.80
2018-04-14T14:34:36.018Z,9.90
2018-04-14T14:37:06.089Z,9.80
2018-04-14T14:39:41.209Z,9.90
2018-04-14T14:45:15.229Z,10.00
2018-04-14T14:47:45.109Z,10.10
2018-04-14T14:50:19.707Z,10.00
2018-04-14T14:52:52.887Z,10.20
2018-04-14T14:55:25.919Z,10.20
2018-04-14T14:57:54.577Z,10.30
2018-04-14T15:00:27.848Z,10.30
2018-04-14T15:03:03.162Z,10.30
2018-04-14T15:05:37.149Z,10.30
2018-04-14T15:08:13.081Z,10.40
2018-04-14T15:10:42.655Z,10.50
2018-04-14T15:13:11.638Z,10.60
2018-04-14T15:15:42.257Z,10.80
2018-04-14T15:18:11.705Z,10.90
2018-04-14T15:20:40.921Z,11.00
2018-04-14T15:23:10.515Z,11.10
2018-04-14T15:25:40.236Z,11.20
2018-04-14T15:28:14.866Z,11.30
2018-04-14T15:30:52.596Z,11.30
2018-04-14T15:33:27.634Z,11.30
2018-04-14T15:35:57.112Z,11.40
2018-04-14T15:38:28.610Z,11.30
2018-04-14T15:40:58.401Z,11.30
2018-04-14T15:43:33.028Z,11.40
2018-04-14T15:46:08.416Z,11.30
2018-04-14T15:48:42.507Z,11.30
2018-04-14T15:51:20.334Z,11.30
2018-04-14T15:53:52.188Z,11.40
2018-04-14T15:56:38.593Z,11.40
